createdAt,value
2022-10-19T00:02:09.540Z,9.58
2022-10-19T00:07:12.724Z,9.61
2022-10-19T00:12:15.933Z,9.65
2022-10-19T00:17:19.654Z,9.72
2022-10-19T00:22:23.375Z,9.85
2022-10-19T00:27:26.490Z,9.97
2022-10-19T00:32:29.491Z,10.02
2022-10-19T00:37:32.694Z,10.01
2022-10-19T00:42:35.906Z,10.02
2022-10-19T00:47:39.966Z,9.99
2022-10-19T00:52:43.237Z,9.96
2022-10-19T00:57:46.271Z,9.89
2022-10-19T01:02:49.652Z,9.83
2022-10-19T01:07:52.962Z,9.81
2022-10-19T01:13:08.253Z,9.81
2022-10-19T01:18:22.627Z,9.77
2022-10-19T01:24:03.721Z,9.67
2022-10-19T01:29:11.033Z,9.60
2022-10-19T01:34:24.579Z,9.54
2022-10-19T01:39:46.387Z,9.47
2022-10-19T01:45:10.312Z,9.39
2022-10-19T01:50:20.059Z,9.30
2022-10-19T01:55:26.671Z,9.26
2022-10-19T02:00:32.941Z,9.31
2022-10-19T02:05:37.904Z,9.40
2022-10-19T02:10:44.499Z,9.48
2022-10-19T02:15:52.702Z,9.55
2022-10-19T02:20:56.423Z,9.62
2022-10-19T02:26:00.039Z,9.65
2022-10-19T02:31:04.095Z,9.66
2022-10-19T02:36:08.094Z,9.68
2022-10-19T02:41:17.318Z,9.71
2022-10-19T02:46:35.222Z,9.75
2022-10-19T02:51:41.184Z,9.80
2022-10-19T02:56:44.273Z,9.79
2022-10-19T03:01:47.381Z,9.78
2022-10-19T03:06:50.361Z,9.77
2022-10-19T03:11:55.352Z,9.76
2022-10-19T03:16:58.642Z,9.73
2022-10-19T03:22:02.156Z,9.72
2022-10-19T03:27:05.365Z,9.65
2022-10-19T03:32:08.469Z,9.56
2022-10-19T03:37:13.831Z,9.53
2022-10-19T03:42:16.937Z,9.52
2022-10-19T03:47:20.162Z,9.56
2022-10-19T03:52:23.248Z,9.62
2022-10-19T03:57:26.456Z,9.68
2022-10-19T04:02:29.666Z,9.74
2022-10-19T04:07:33.283Z,9.78
2022-10-19T04:12:36.695Z,9.81
2022-10-19T04:17:40.007Z,9.84
2022-10-19T04:22:43.214Z,9.87
2022-10-19T04:27:46.421Z,9.89
2022-10-19T04:32:49.627Z,9.92
2022-10-19T04:37:53.043Z,9.94
2022-10-19T04:42:56.045Z,9.92
2022-10-19T04:47:59.064Z,9.91
2022-10-19T04:53:02.461Z,9.94
2022-10-19T04:58:05.464Z,9.98
2022-10-19T05:03:08.878Z,10.02
2022-10-19T05:08:11.983Z,10.05
2022-10-19T05:13:15.191Z,10.07
2022-10-19T05:18:18.302Z,10.08
2022-10-19T05:23:21.562Z,10.09
2022-10-19T05:28:24.816Z,10.10
2022-10-19T05:33:28.433Z,10.12
2022-10-19T05:38:32.255Z,10.12
2022-10-19T05:43:35.360Z,10.13
2022-10-19T05:48:40.319Z,10.14
2022-10-19T05:53:44.725Z,10.14
2022-10-19T05:58:48.672Z,10.16
2022-10-19T06:03:54.134Z,10.20
2022-10-19T06:08:59.127Z,10.23
2022-10-19T06:14:05.844Z,10.32
2022-10-19T06:19:09.149Z,10.39
2022-10-19T06:24:13.324Z,10.48
2022-10-19T06:29:17.193Z,10.66
2022-10-19T06:34:20.677Z,10.97
2022-10-19T06:39:24.063Z,11.49
2022-10-19T06:44:27.683Z,12.02
2022-10-19T06:49:31.414Z,12.70
2022-10-19T06:54:34.608Z,13.19
2022-10-19T06:59:37.611Z,13.27
2022-10-19T07:04:40.823Z,13.17
2022-10-19T07:09:43.845Z,12.90
2022-10-19T07:14:48.262Z,12.65
2022-10-19T07:19:51.365Z,12.47
2022-10-19T07:24:54.988Z,12.39
2022-10-19T07:29:57.988Z,12.38
2022-10-19T07:35:00.990Z,12.38
2022-10-19T07:40:06.126Z,12.49
2022-10-19T07:45:09.771Z,14.31
2022-10-19T07:50:13.479Z,16.22
2022-10-19T07:55:17.302Z,18.23
2022-10-19T08:00:20.734Z,22.78
2022-10-19T08:05:23.845Z,25.42
2022-10-19T08:10:27.336Z,27.11
2022-10-19T08:15:30.852Z,28.51
2022-10-19T08:20:34.060Z,28.78
2022-10-19T08:25:37.780Z,29.43
2022-10-19T08:30:41.098Z,29.20
2022-10-19T08:35:44.504Z,28.66
2022-10-19T08:40:47.919Z,29.70
2022-10-19T08:46:00.750Z,30.44
2022-10-19T08:51:05.882Z,30.46
2022-10-19T08:56:49.283Z,30.77
2022-10-19T09:02:00.142Z,30.73
2022-10-19T09:07:34.551Z,30.81
2022-10-19T09:12:58.537Z,28.77
2022-10-19T09:18:03.112Z,26.78
2022-10-19T09:23:21.171Z,27.16
2022-10-19T09:28:45.062Z,25.57
2022-10-19T09:33:55.903Z,25.20
2022-10-19T09:38:59.158Z,26.57
2022-10-19T09:44:02.677Z,28.15
2022-10-19T09:49:06.399Z,27.03
2022-10-19T09:54:32.251Z,23.21
2022-10-19T09:59:37.446Z,19.54
2022-10-19T10:04:40.700Z,17.68
2022-10-19T10:09:45.233Z,16.46
2022-10-19T10:14:50.704Z,15.43
2022-10-19T10:19:59.947Z,14.84
2022-10-19T10:25:14.069Z,14.64
2022-10-19T10:30:18.862Z,14.61
2022-10-19T10:35:47.970Z,14.87
2022-10-19T10:41:20.570Z,14.71
2022-10-19T10:46:33.607Z,13.61
2022-10-19T10:51:45.113Z,12.82
2022-10-19T10:57:17.039Z,12.49
2022-10-19T11:02:52.660Z,12.50
2022-10-19T11:08:33.699Z,12.49
2022-10-19T11:13:59.390Z,12.19
2022-10-19T11:19:10.611Z,11.88
2022-10-19T11:24:50.964Z,11.80
2022-10-19T11:30:10.260Z,11.78
2022-10-19T11:35:16.534Z,11.89
2022-10-19T11:40:27.319Z,12.02
2022-10-19T11:45:42.716Z,12.12
2022-10-19T11:50:54.143Z,12.39
2022-10-19T11:56:07.348Z,12.49
2022-10-19T12:01:40.922Z,12.16
2022-10-19T12:06:56.672Z,11.60
2022-10-19T12:12:08.691Z,11.24
2022-10-19T12:17:20.649Z,10.97
2022-10-19T12:22:28.827Z,10.89
2022-10-19T12:27:38.677Z,10.94
2022-10-19T12:32:53.484Z,10.93
2022-10-19T12:38:00.361Z,11.04
2022-10-19T12:43:22.112Z,11.27
2022-10-19T12:48:25.632Z,11.54
2022-10-19T12:53:49.376Z,11.66
2022-10-19T12:59:01.789Z,11.51
2022-10-19T13:04:22.961Z,11.35
2022-10-19T13:09:46.251Z,10.99
2022-10-19T13:14:55.114Z,10.77
2022-10-19T13:20:14.253Z,10.71
2022-10-19T13:25:18.493Z,10.77
2022-10-19T13:30:38.701Z,10.83
2022-10-19T13:35:42.215Z,10.80
2022-10-19T13:40:48.395Z,10.75
2022-10-19T13:46:20.496Z,10.73
2022-10-19T13:51:29.931Z,10.68
2022-10-19T13:56:52.494Z,10.59
2022-10-19T14:02:09.648Z,10.60
2022-10-19T14:07:42.022Z,10.62
2022-10-19T14:12:46.559Z,10.61
2022-10-19T14:17:49.975Z,10.53
2022-10-19T14:22:53.589Z,10.34
2022-10-19T14:28:05.195Z,10.19
2022-10-19T14:33:14.814Z,10.08
2022-10-19T14:38:35.572Z,9.94
2022-10-19T14:43:38.884Z,9.87
2022-10-19T14:48:46.392Z,9.76
2022-10-19T14:53:54.440Z,9.52
2022-10-19T14:59:03.378Z,9.29
2022-10-19T15:04:07.282Z,9.11
2022-10-19T15:09:36.840Z,8.96
2022-10-19T15:14:42.036Z,8.77
2022-10-19T15:19:46.498Z,8.61
2022-10-19T15:25:20.324Z,8.43
2022-10-19T15:30:27.734Z,8.27
2022-10-19T15:35:36.743Z,8.16
2022-10-19T15:40:42.739Z,8.11
2022-10-19T15:45:45.951Z,8.07
2022-10-19T15:50:52.569Z,8.00
2022-10-19T15:55:55.878Z,7.86
2022-10-19T16:00:59.675Z,7.70
2022-10-19T16:06:03.191Z,7.59
2022-10-19T16:11:06.294Z,7.53
2022-10-19T16:16:12.982Z,7.51
2022-10-19T16:21:17.010Z,7.49
2022-10-19T16:26:21.938Z,7.43
2022-10-19T16:31:25.368Z,7.34
2022-10-19T16:36:28.654Z,7.26
2022-10-19T16:41:32.324Z,7.20
2022-10-19T16:46:36.838Z,7.15
2022-10-19T16:51:42.195Z,7.11
2022-10-19T16:56:47.964Z,7.10
2022-10-19T17:01:51.139Z,7.08
2022-10-19T17:06:54.689Z,7.08
2022-10-19T17:11:58.823Z,7.07
2022-10-19T17:17:02.439Z,7.10
2022-10-19T17:22:07.770Z,7.13
2022-10-19T17:27:11.207Z,7.16
2022-10-19T17:32:14.721Z,7.19
2022-10-19T17:37:18.031Z,7.20
2022-10-19T17:42:21.958Z,7.22
2022-10-19T17:47:26.906Z,7.24
2022-10-19T17:52:30.423Z,7.21
2022-10-19T17:57:36.628Z,7.10
2022-10-19T18:02:41.016Z,6.98
2022-10-19T18:07:45.292Z,6.89
2022-10-19T18:12:48.992Z,6.83
2022-10-19T18:17:53.260Z,6.81
2022-10-19T18:22:56.634Z,6.83
2022-10-19T18:28:01.160Z,6.91
2022-10-19T18:33:06.136Z,6.97
2022-10-19T18:38:10.352Z,7.04
2022-10-19T18:43:14.891Z,7.11
2022-10-19T18:48:19.911Z,7.17
2022-10-19T18:53:24.809Z,7.24
2022-10-19T18:58:33.692Z,7.26
2022-10-19T19:03:39.461Z,7.25
2022-10-19T19:08:46.213Z,7.21
2022-10-19T19:13:53.610Z,7.18
2022-10-19T19:18:58.136Z,7.18
2022-10-19T19:24:04.254Z,7.17
2022-10-19T19:29:09.272Z,7.14
2022-10-19T19:34:13.733Z,7.12
2022-10-19T19:39:20.158Z,7.10
2022-10-19T19:44:30.067Z,7.08
2022-10-19T19:49:35.201Z,7.02
2022-10-19T19:54:39.228Z,6.92
2022-10-19T19:59:42.605Z,6.83
2022-10-19T20:04:45.848Z,6.74
2022-10-19T20:09:49.368Z,6.66
2022-10-19T20:14:52.673Z,6.61
2022-10-19T20:19:56.398Z,6.59
2022-10-19T20:25:02.477Z,6.59
2022-10-19T20:30:09.092Z,6.65
2022-10-19T20:35:14.108Z,6.73
2022-10-19T20:40:18.860Z,6.81
2022-10-19T20:45:22.883Z,6.88
2022-10-19T20:50:27.222Z,6.91
2022-10-19T20:55:30.526Z,6.84
2022-10-19T21:00:33.835Z,6.77
2022-10-19T21:05:38.663Z,6.74
2022-10-19T21:10:41.990Z,6.73
2022-10-19T21:15:45.204Z,6.70
2022-10-19T21:20:48.613Z,6.67
2022-10-19T21:25:55.300Z,6.63
2022-10-19T21:31:03.449Z,6.59
2022-10-19T21:36:08.278Z,6.55
2022-10-19T21:41:20.810Z,6.51
2022-10-19T21:46:28.090Z,6.49
2022-10-19T21:51:35.304Z,6.48
2022-10-19T21:56:38.717Z,6.45
2022-10-19T22:01:42.475Z,6.44
2022-10-19T22:06:46.772Z,6.45
2022-10-19T22:11:50.285Z,6.47
2022-10-19T22:16:53.594Z,6.50
2022-10-19T22:21:56.906Z,6.53
2022-10-19T22:27:00.115Z,6.58
2022-10-19T22:32:03.628Z,6.60
2022-10-19T22:37:07.042Z,6.61
2022-10-19T22:42:10.146Z,6.62
2022-10-19T22:47:13.254Z,6.64
2022-10-19T22:52:16.973Z,6.63
2022-10-19T22:57:20.283Z,6.63
2022-10-19T23:02:24.208Z,6.63
2022-10-19T23:07:27.315Z,6.63
2022-10-19T23:12:30.522Z,6.63
2022-10-19T23:17:34.144Z,6.63
2022-10-19T23:22:37.657Z,6.62
2022-10-19T23:27:40.759Z,6.61
2022-10-19T23:32:44.069Z,6.57
2022-10-19T23:37:47.177Z,6.50
2022-10-19T23:42:50.283Z,6.41
2022-10-19T23:47:53.389Z,6.35
2022-10-19T23:52:57.046Z,6.33
2022-10-19T23:58:00.417Z,6.32
